createdAt,value
2022-11-16T00:03:06.832Z,100954.75
2022-11-16T00:08:03.772Z,100949.56
2022-11-16T00:13:00.657Z,100947.91
2022-11-16T00:17:58.671Z,100926.72
2022-11-16T00:22:57.512Z,100941.88
2022-11-16T00:27:54.372Z,100932.31
2022-11-16T00:32:51.224Z,100925.59
2022-11-16T00:37:48.016Z,100917.91
2022-11-16T00:42:50.074Z,100903.06
2022-11-16T00:47:47.239Z,100895.19
2022-11-16T00:52:44.043Z,100902.66
2022-11-16T00:57:42.813Z,100878.78
2022-11-16T01:02:40.897Z,100876.47
2022-11-16T01:07:41.357Z,100866.63
2022-11-16T01:12:38.384Z,100865.78
2022-11-16T01:17:37.557Z,100856.28
2022-11-16T01:22:39.993Z,100856.09
2022-11-16T01:27:37.441Z,100853.47
2022-11-16T01:32:36.954Z,100841.72
2022-11-16T01:37:39.431Z,100832.00
2022-11-16T01:42:36.299Z,100838.03
2022-11-16T01:47:33.572Z,100826.84
2022-11-16T01:52:32.896Z,100834.41
2022-11-16T01:57:33.592Z,100797.69
2022-11-16T02:02:35.605Z,100818.13
2022-11-16T02:08:00.434Z,100803.59
2022-11-16T02:13:11.853Z,100803.66
2022-11-16T02:18:20.353Z,100814.50
2022-11-16T02:23:32.259Z,100807.09
2022-11-16T02:28:34.430Z,100801.84
2022-11-16T02:33:35.310Z,100806.56
2022-11-16T02:38:38.123Z,100803.16
2022-11-16T02:43:40.511Z,100792.88
2022-11-16T02:48:40.174Z,100776.88
2022-11-16T02:53:43.504Z,100769.47
2022-11-16T02:58:42.579Z,100782.19
2022-11-16T03:03:42.220Z,100777.81
2022-11-16T03:08:54.936Z,100772.81
2022-11-16T03:13:55.612Z,100763.91
2022-11-16T03:18:55.997Z,100754.25
2022-11-16T03:23:54.333Z,100739.78
2022-11-16T03:28:55.846Z,100718.38
2022-11-16T03:33:57.238Z,100725.47
2022-11-16T03:38:58.195Z,100715.09
2022-11-16T03:43:58.998Z,100703.78
2022-11-16T03:48:58.292Z,100688.31
2022-11-16T03:53:59.086Z,100673.84
2022-11-16T03:58:55.999Z,100686.28
2022-11-16T04:03:52.966Z,100686.28
2022-11-16T04:09:12.393Z,100683.66
2022-11-16T04:14:30.572Z,100675.19
2022-11-16T04:19:45.396Z,100675.19
2022-11-16T04:24:47.221Z,100670.31
2022-11-16T04:29:44.209Z,100665.38
2022-11-16T04:34:59.314Z,100673.50
2022-11-16T04:39:58.746Z,100665.53
2022-11-16T04:45:14.562Z,100650.38
2022-11-16T04:50:19.262Z,100646.25
2022-11-16T04:55:19.849Z,100646.75
2022-11-16T05:00:19.246Z,100639.25
2022-11-16T05:05:18.590Z,100632.72
2022-11-16T05:10:20.099Z,100649.44
2022-11-16T05:15:26.449Z,100641.88
2022-11-16T05:20:42.340Z,100640.53
2022-11-16T05:25:42.743Z,100647.72
2022-11-16T05:30:44.926Z,100633.03
2022-11-16T05:35:43.744Z,100635.91
2022-11-16T05:40:42.614Z,100631.28
2022-11-16T05:45:39.340Z,100639.41
2022-11-16T05:50:42.774Z,100631.88
2022-11-16T05:55:51.264Z,100639.19
2022-11-16T06:00:50.505Z,100627.84
2022-11-16T06:05:52.792Z,100616.91
2022-11-16T06:10:49.734Z,100621.50
2022-11-16T06:15:52.934Z,100619.97
2022-11-16T06:20:50.945Z,100598.47
2022-11-16T06:25:52.887Z,100612.22
2022-11-16T06:30:50.129Z,100601.53
2022-11-16T06:35:47.346Z,100603.16
2022-11-16T06:40:55.844Z,100595.91
2022-11-16T06:45:55.960Z,100599.31
2022-11-16T06:50:52.825Z,100590.47
2022-11-16T06:55:54.191Z,100578.50
2022-11-16T07:00:51.098Z,100578.28
2022-11-16T07:05:51.027Z,100576.88
2022-11-16T07:10:49.319Z,100578.63
2022-11-16T07:15:46.806Z,100557.31
2022-11-16T07:20:43.455Z,100564.56
2022-11-16T07:25:46.163Z,100566.94
2022-11-16T07:30:44.152Z,100563.56
2022-11-16T07:35:44.795Z,100569.34
2022-11-16T07:40:48.500Z,100564.91
2022-11-16T07:45:48.466Z,100554.38
2022-11-16T07:50:48.543Z,100557.50
2022-11-16T07:55:51.343Z,100555.69
2022-11-16T08:00:50.669Z,100548.06
2022-11-16T08:05:48.405Z,100552.25
2022-11-16T08:10:45.681Z,100543.66
2022-11-16T08:15:43.240Z,100544.97
2022-11-16T08:20:43.246Z,100550.41
2022-11-16T08:25:41.376Z,100548.69
2022-11-16T08:30:38.853Z,100539.38
2022-11-16T08:35:36.794Z,100547.59
2022-11-16T08:40:36.936Z,100539.22
2022-11-16T08:45:35.131Z,100527.00
2022-11-16T08:50:44.152Z,100530.09
2022-11-16T08:55:49.243Z,100532.91
2022-11-16T09:00:49.818Z,100521.31
2022-11-16T09:05:47.901Z,100519.56
2022-11-16T09:10:45.798Z,100495.88
2022-11-16T09:15:42.467Z,100509.91
2022-11-16T09:20:44.145Z,100523.38
2022-11-16T09:25:41.512Z,100511.16
2022-11-16T09:30:40.317Z,100515.16
2022-11-16T09:35:37.084Z,100499.81
2022-11-16T09:40:36.520Z,100489.69
2022-11-16T09:45:37.796Z,100475.38
2022-11-16T09:50:39.753Z,100470.31
2022-11-16T09:55:47.657Z,100446.84
2022-11-16T10:00:47.437Z,100441.22
2022-11-16T10:05:48.951Z,100435.94
2022-11-16T10:10:53.364Z,100430.22
2022-11-16T10:15:55.989Z,100429.91
2022-11-16T10:20:58.195Z,100425.53
2022-11-16T10:25:58.331Z,100404.91
2022-11-16T10:31:07.661Z,100402.44
2022-11-16T10:36:06.123Z,100388.28
2022-11-16T10:41:09.600Z,100396.28
2022-11-16T10:46:12.616Z,100377.03
2022-11-16T10:51:11.491Z,100385.66
2022-11-16T10:56:18.526Z,100378.41
2022-11-16T11:01:27.057Z,100377.13
2022-11-16T11:06:32.687Z,100368.97
2022-11-16T11:11:48.728Z,100352.47
2022-11-16T11:16:45.420Z,100347.94
2022-11-16T11:21:49.028Z,100346.34
2022-11-16T11:26:52.571Z,100337.94
2022-11-16T11:31:50.442Z,100308.78
2022-11-16T11:36:49.281Z,100337.16
2022-11-16T11:41:47.063Z,100325.41
2022-11-16T11:47:35.156Z,100321.84
2022-11-16T11:52:11.694Z,100313.63
2022-11-16T11:57:12.443Z,100317.88
2022-11-16T12:02:19.861Z,100308.44
2022-11-16T12:07:24.299Z,100292.41
2022-11-16T12:12:34.912Z,100298.94
2022-11-16T12:17:43.406Z,100291.13
2022-11-16T12:22:58.457Z,100287.97
2022-11-16T12:28:10.174Z,100281.28
2022-11-16T12:33:16.345Z,100274.19
2022-11-16T12:38:26.079Z,100266.28
2022-11-16T12:43:31.423Z,100272.63
2022-11-16T12:48:41.986Z,100270.06
2022-11-16T12:53:59.698Z,100256.59
2022-11-16T12:59:13.589Z,100243.69
2022-11-16T13:04:16.350Z,100249.25
2022-11-16T13:09:16.669Z,100253.50
2022-11-16T13:14:16.724Z,100245.88
2022-11-16T13:19:15.328Z,100257.31
2022-11-16T13:24:25.748Z,100228.72
2022-11-16T13:29:31.728Z,100237.97
2022-11-16T13:34:32.641Z,100232.53
2022-11-16T13:39:47.835Z,100229.88
2022-11-16T13:44:51.305Z,100222.50
2022-11-16T13:49:58.655Z,100214.38
2022-11-16T13:54:58.610Z,100200.56
2022-11-16T14:00:07.353Z,100201.31
2022-11-16T14:05:06.120Z,100195.34
2022-11-16T14:10:06.857Z,100199.34
2022-11-16T14:15:12.967Z,100184.34
2022-11-16T14:20:15.177Z,100173.41
2022-11-16T14:25:23.472Z,100175.34
2022-11-16T14:30:22.278Z,100183.41
2022-11-16T14:35:27.462Z,100177.97
2022-11-16T14:40:25.020Z,100167.81
2022-11-16T14:45:24.437Z,100167.56
2022-11-16T14:50:27.381Z,100157.28
2022-11-16T14:55:25.948Z,100153.59
2022-11-16T15:00:25.338Z,100134.59
2022-11-16T15:05:29.263Z,100165.16
2022-11-16T15:10:29.538Z,100165.91
2022-11-16T15:15:28.094Z,100169.63
2022-11-16T15:20:30.797Z,100157.75
2022-11-16T15:25:28.771Z,100159.69
2022-11-16T15:30:27.709Z,100160.59
2022-11-16T15:35:25.753Z,100159.91
2022-11-16T15:40:23.847Z,100152.03
2022-11-16T15:45:24.305Z,100151.09
2022-11-16T15:50:24.962Z,100147.97
2022-11-16T15:55:25.956Z,100160.88
2022-11-16T16:00:23.391Z,100145.91
2022-11-16T16:05:23.945Z,100139.31
2022-11-16T16:10:25.308Z,100144.09
2022-11-16T16:15:24.224Z,100144.38
2022-11-16T16:20:22.480Z,100138.13
2022-11-16T16:25:26.053Z,100141.66
2022-11-16T16:30:24.007Z,100138.31
2022-11-16T16:35:22.332Z,100135.44
2022-11-16T16:40:19.347Z,100108.03
2022-11-16T16:45:18.856Z,100139.00
2022-11-16T16:50:16.939Z,100134.53
2022-11-16T16:55:13.828Z,100120.91
2022-11-16T17:00:11.134Z,100125.69
2022-11-16T17:05:08.855Z,100123.38
2022-11-16T17:10:07.588Z,100121.53
2022-11-16T17:15:05.230Z,100107.28
2022-11-16T17:20:02.190Z,100097.78
2022-11-16T17:24:59.523Z,100107.19
2022-11-16T17:30:00.621Z,100098.28
2022-11-16T17:34:57.440Z,100088.50
2022-11-16T17:39:56.823Z,100082.72
2022-11-16T17:44:54.801Z,100084.59
2022-11-16T17:49:52.403Z,100083.69
2022-11-16T17:54:49.117Z,100080.75
2022-11-16T17:59:48.805Z,100074.13
2022-11-16T18:04:50.734Z,100081.47
2022-11-16T18:09:51.050Z,100072.69
2022-11-16T18:15:13.572Z,100072.03
2022-11-16T18:20:07.872Z,100069.78
2022-11-16T18:25:06.380Z,100067.47
2022-11-16T18:30:03.214Z,100063.19
2022-11-16T18:35:03.110Z,100041.75
2022-11-16T18:40:00.786Z,100055.81
2022-11-16T18:44:59.154Z,100060.16
2022-11-16T18:49:55.950Z,100056.81
2022-11-16T18:54:52.729Z,100060.72
2022-11-16T18:59:49.569Z,100061.16
2022-11-16T19:04:47.334Z,100048.22
2022-11-16T19:09:47.163Z,100043.06
2022-11-16T19:14:46.639Z,100045.38
2022-11-16T19:19:43.595Z,100043.38
2022-11-16T19:24:46.486Z,100038.69
2022-11-16T19:29:43.136Z,100038.06
2022-11-16T19:34:39.806Z,100033.78
2022-11-16T19:39:36.803Z,100037.03
2022-11-16T19:44:34.482Z,100035.50
2022-11-16T19:49:31.364Z,100034.75
2022-11-16T19:54:28.105Z,100039.59
2022-11-16T19:59:24.775Z,100035.75
2022-11-16T20:04:26.626Z,100031.78
2022-11-16T20:09:25.198Z,100034.19
2022-11-16T20:14:21.936Z,100040.91
2022-11-16T20:19:20.266Z,100040.53
2022-11-16T20:24:17.717Z,100029.72
2022-11-16T20:29:15.521Z,100033.19
2022-11-16T20:34:13.625Z,100032.13
2022-11-16T20:39:12.739Z,100031.81
2022-11-16T20:44:15.990Z,100021.22
2022-11-16T20:49:15.689Z,100019.69
2022-11-16T20:54:12.323Z,100011.88
2022-11-16T20:59:09.033Z,100009.97
2022-11-16T21:04:07.052Z,100007.94
2022-11-16T21:09:06.162Z,100017.34
2022-11-16T21:14:18.229Z,100019.06
2022-11-16T21:19:17.957Z,100017.13
2022-11-16T21:24:14.709Z,100019.94
2022-11-16T21:29:14.318Z,100017.22
2022-11-16T21:34:11.067Z,100021.56
2022-11-16T21:39:09.558Z,100013.50
2022-11-16T21:44:06.248Z,100014.28
2022-11-16T21:49:02.896Z,100012.34
2022-11-16T21:53:59.532Z,100006.63
2022-11-16T21:59:00.810Z,100014.13
2022-11-16T22:04:15.546Z,100009.75
2022-11-16T22:09:12.295Z,100004.03
2022-11-16T22:14:10.781Z,100002.44
2022-11-16T22:19:07.485Z,99997.78
2022-11-16T22:24:04.424Z,99998.03
2022-11-16T22:29:01.436Z,99971.09
2022-11-16T22:34:01.968Z,99970.66
2022-11-16T22:38:58.700Z,99978.38
2022-11-16T22:43:57.793Z,99983.50
2022-11-16T22:48:54.697Z,99957.00
2022-11-16T22:53:53.727Z,99970.53
2022-11-16T22:58:53.853Z,99963.91
2022-11-16T23:03:50.822Z,99964.78
2022-11-16T23:08:50.170Z,99956.06
2022-11-16T23:14:05.621Z,99939.97
2022-11-16T23:19:27.156Z,99931.03
2022-11-16T23:24:44.233Z,99924.56
2022-11-16T23:29:41.928Z,99913.13
2022-11-16T23:34:38.568Z,99904.81
2022-11-16T23:39:35.172Z,99895.75
2022-11-16T23:44:34.342Z,99882.75
2022-11-16T23:49:31.653Z,99877.78
2022-11-16T23:54:28.307Z,99877.56
2022-11-16T23:59:27.522Z,99872.53
